Time;durP1;ratioP1;P1;durP2;ratioP2;P2;SDS_P1;SDS_P2;PMS_P1;PMS_P2;Temp;Humidity;BMP_temperature;BMP_pressure;BME280_temperature;BME280_humidity;BME280_pressure;Samples;Min_cycle;Max_cycle;Signal;HPM_P1;HPM_P2
2023/06/28 00:02:17;;;;;;;8.63;2.10;;;;;;;15.19;99.07;100967.72;5015458;28;20455;-73
2023/06/28 00:04:44;;;;;;;6.03;1.90;;;;;;;15.19;98.14;100966.91;5015109;28;20947;-73
2023/06/28 00:07:11;;;;;;;9.83;2.03;;;;;;;15.08;99.37;100967.22;5015420;28;20579;-73
2023/06/28 00:09:39;;;;;;;6.63;2.10;;;;;;;15.10;99.22;100972.38;5015059;28;20946;-73
2023/06/28 00:12:06;;;;;;;8.50;2.50;;;;;;;15.00;100.00;100967.22;5015250;28;20460;-73
2023/06/28 00:14:32;;;;;;;5.97;2.07;;;;;;;14.99;100.00;100973.81;5014928;28;20448;-72
2023/06/28 00:16:59;;;;;;;6.27;2.07;;;;;;;14.96;99.43;100972.50;5014943;28;20479;-73
2023/06/28 00:19:27;;;;;;;5.77;1.40;;;;;;;14.92;100.00;100966.13;5015192;28;20444;-73
2023/06/28 00:21:54;;;;;;;6.23;2.23;;;;;;;14.87;100.00;100975.25;5015155;28;20476;-72
2023/06/28 00:24:20;;;;;;;7.37;1.83;;;;;;;14.84;100.00;100978.63;5014803;28;20531;-73
2023/06/28 00:29:17;;;;;;;6.57;1.80;;;;;;;14.71;100.00;100982.31;5039229;23;20499;-69
2023/06/28 00:31:43;;;;;;;6.87;2.37;;;;;;;14.76;100.00;100984.06;5014972;28;20452;-68
2023/06/28 00:34:10;;;;;;;5.20;1.80;;;;;;;14.79;100.00;100995.16;5015000;28;20460;-69
2023/06/28 00:36:37;;;;;;;5.93;2.33;;;;;;;14.73;100.00;100985.50;5015058;28;20487;-69
2023/06/28 00:39:03;;;;;;;6.80;1.80;;;;;;;14.69;100.00;100981.81;5015196;28;20476;-71
2023/06/28 00:41:30;;;;;;;6.30;1.63;;;;;;;14.72;100.00;100981.16;5014237;28;20868;-71
2023/06/28 00:43:58;;;;;;;9.40;2.23;;;;;;;14.73;100.00;100980.03;5015037;28;20440;-69
2023/06/28 00:46:25;;;;;;;7.63;2.50;;;;;;;14.68;100.00;100990.31;5014794;28;20626;-70
2023/06/28 00:48:51;;;;;;;8.50;2.07;;;;;;;14.68;100.00;100982.94;5014828;28;20894;-69
2023/06/28 00:51:19;;;;;;;5.77;2.17;;;;;;;14.62;100.00;100976.03;5014234;28;20484;-69
2023/06/28 00:53:46;;;;;;;5.27;1.63;;;;;;;14.62;100.00;100981.47;5014825;28;20476;-69
2023/06/28 00:56:13;;;;;;;7.93;2.40;;;;;;;14.63;100.00;100985.81;5014514;28;20970;-70
2023/06/28 00:58:40;;;;;;;8.90;2.10;;;;;;;14.61;100.00;100988.06;5014473;28;20472;-69
2023/06/28 01:01:08;;;;;;;6.17;2.13;;;;;;;14.58;100.00;100989.50;5014648;28;20448;-70
2023/06/28 01:03:35;;;;;;;8.70;2.30;;;;;;;14.61;100.00;100986.13;5014420;28;20468;-69
2023/06/28 01:06:04;;;;;;;6.10;2.20;;;;;;;14.64;100.00;100984.69;5014217;28;20486;-69
2023/06/28 01:08:31;;;;;;;7.83;2.50;;;;;;;14.54;100.00;100985.00;5014258;28;20480;-69
2023/06/28 01:10:58;;;;;;;8.13;2.40;;;;;;;14.57;100.00;100987.91;5014087;28;20437;-69
2023/06/28 01:13:25;;;;;;;5.80;2.20;;;;;;;14.54;100.00;100993.16;5014097;28;20456;-70
2023/06/28 01:15:51;;;;;;;9.03;1.93;;;;;;;14.60;100.00;100986.44;5013908;28;20446;-69
2023/06/28 01:18:21;;;;;;;4.90;1.20;;;;;;;14.58;100.00;100988.69;5014056;28;20474;-70
2023/06/28 01:20:49;;;;;;;7.63;1.97;;;;;;;14.61;100.00;100986.13;5014161;28;20458;-68
2023/06/28 01:23:18;;;;;;;6.67;2.30;;;;;;;14.66;100.00;100992.56;5014080;28;20441;-69
2023/06/28 01:25:45;;;;;;;5.70;1.70;;;;;;;14.64;100.00;100981.97;5013988;28;20542;-68
2023/06/28 01:28:13;;;;;;;5.70;1.60;;;;;;;14.66;100.00;100979.72;5013769;28;20480;-70
2023/06/28 01:30:40;;;;;;;7.50;2.53;;;;;;;14.62;100.00;100987.75;5014023;28;20452;-67
2023/06/28 01:33:07;;;;;;;6.93;1.97;;;;;;;14.63;100.00;100992.06;5013709;28;20507;-68
2023/06/28 01:35:34;;;;;;;10.47;2.70;;;;;;;14.67;100.00;100991.44;5013888;28;20486;-69
2023/06/28 01:38:01;;;;;;;7.53;2.30;;;;;;;14.63;100.00;100996.72;5013765;28;20469;-68
2023/06/28 01:40:35;;;;;;;10.37;1.93;;;;;;;14.60;100.00;100998.16;5013739;28;20452;-67
2023/06/28 01:43:02;;;;;;;5.43;1.87;;;;;;;14.53;100.00;100989.66;5014186;28;20467;-67
2023/06/28 01:45:29;;;;;;;14.53;1.97;;;;;;;14.59;100.00;100999.28;5013543;28;20454;-67
2023/06/28 01:47:56;;;;;;;6.77;1.90;;;;;;;14.59;100.00;100996.53;5013541;28;20850;-69
2023/06/28 01:50:23;;;;;;;6.63;1.90;;;;;;;14.60;100.00;101000.06;5013728;28;20472;-68
2023/06/28 01:52:50;;;;;;;7.57;2.37;;;;;;;14.59;100.00;100993.81;5012983;28;20444;-68
2023/06/28 01:55:17;;;;;;;5.20;1.47;;;;;;;14.60;100.00;100995.41;5013257;28;20468;-69
2023/06/28 01:57:45;;;;;;;7.43;1.87;;;;;;;14.60;100.00;101000.88;5013639;28;20487;-68
2023/06/28 02:00:15;;;;;;;6.87;2.27;;;;;;;14.60;100.00;101003.59;5013625;28;20459;-68
2023/06/28 02:02:41;;;;;;;7.27;1.47;;;;;;;14.58;100.00;101003.13;5013524;28;20440;-68
2023/06/28 02:05:09;;;;;;;9.40;2.43;;;;;;;14.63;100.00;100992.06;5013552;28;20452;-69
2023/06/28 02:07:35;;;;;;;6.90;2.37;;;;;;;14.61;100.00;101001.69;5013184;28;21015;-67
2023/06/28 02:10:02;;;;;;;5.30;1.60;;;;;;;14.65;100.00;100999.91;5013485;28;20502;-68
2023/06/28 02:12:29;;;;;;;7.93;2.03;;;;;;;14.63;100.00;100991.25;5013419;28;20462;-67
2023/06/28 02:14:58;;;;;;;6.20;1.30;;;;;;;14.60;100.00;100992.69;5013204;28;20982;-67
2023/06/28 02:17:24;;;;;;;5.80;1.70;;;;;;;14.59;100.00;100988.38;5013218;28;20463;-67
2023/06/28 02:19:51;;;;;;;7.57;2.07;;;;;;;14.59;100.00;100974.72;5013470;28;20577;-68
2023/06/28 02:22:19;;;;;;;8.90;2.27;;;;;;;14.59;100.00;100980.19;5013452;28;20447;-68
2023/06/28 02:24:45;;;;;;;6.37;2.13;;;;;;;14.60;100.00;100975.53;5013217;28;21011;-68
2023/06/28 02:27:12;;;;;;;6.77;2.10;;;;;;;14.62;100.00;100978.75;5012929;28;20565;-70
2023/06/28 02:29:39;;;;;;;4.97;1.43;;;;;;;14.61;100.00;100972.50;5013447;28;20440;-67
2023/06/28 02:32:07;;;;;;;5.80;2.20;;;;;;;14.64;100.00;100973.78;5013406;28;20527;-67
2023/06/28 02:34:35;;;;;;;6.20;1.90;;;;;;;14.63;100.00;100981.16;5013235;28;20959;-68
2023/06/28 02:37:01;;;;;;;6.90;2.00;;;;;;;14.67;100.00;100975.88;5013037;28;20450;-68
2023/06/28 02:39:28;;;;;;;9.60;1.80;;;;;;;14.74;100.00;100980.84;5013311;28;20440;-67
2023/06/28 02:41:55;;;;;;;10.83;2.33;;;;;;;14.73;100.00;100974.59;5013187;28;20535;-69
2023/06/28 02:44:21;;;;;;;7.40;2.23;;;;;;;14.77;100.00;100980.22;5013462;28;20432;-68
2023/06/28 02:46:48;;;;;;;5.50;1.77;;;;;;;14.82;99.71;100978.13;5012937;28;20582;-69
2023/06/28 02:49:16;;;;;;;6.27;2.30;;;;;;;14.82;99.49;100977.31;5013048;28;20551;-70
2023/06/28 02:51:43;;;;;;;9.57;2.40;;;;;;;14.88;99.27;100967.88;5013094;28;20480;-69
2023/06/28 02:54:10;;;;;;;6.70;2.03;;;;;;;14.80;100.00;100968.66;5012742;28;20958;-68
2023/06/28 02:56:36;;;;;;;8.77;2.10;;;;;;;14.88;99.45;100968.69;5013017;28;20448;-68
2023/06/28 02:59:03;;;;;;;6.30;1.83;;;;;;;14.84;99.98;100969.63;5013035;28;20503;-69
2023/06/28 03:01:30;;;;;;;5.83;1.70;;;;;;;14.91;99.77;100961.75;5012828;28;20450;-68
2023/06/28 03:03:56;;;;;;;6.37;1.83;;;;;;;14.91;100.00;100967.22;5012927;28;20451;-69
2023/06/28 03:06:24;;;;;;;5.63;1.73;;;;;;;14.99;99.62;100982.00;5016234;28;20526;-68
2023/06/28 03:08:51;;;;;;;5.43;1.57;;;;;;;14.95;99.64;100978.28;5016442;28;21017;-69
2023/06/28 03:11:18;;;;;;;7.90;1.80;;;;;;;14.84;100.00;100981.34;5016329;28;21001;-68
2023/06/28 03:13:44;;;;;;;8.63;2.23;;;;;;;14.86;100.00;100989.19;5016310;28;20440;-68
2023/06/28 03:16:11;;;;;;;4.93;1.47;;;;;;;14.95;100.00;100981.03;5016335;28;20448;-69
2023/06/28 03:18:38;;;;;;;7.27;1.83;;;;;;;14.93;99.76;100988.75;5016008;28;20542;-68
2023/06/28 03:21:04;;;;;;;5.47;1.70;;;;;;;14.96;99.42;100986.16;5016301;28;20538;-69
2023/06/28 03:23:32;;;;;;;6.13;2.23;;;;;;;15.02;99.62;100986.81;5016715;28;20531;-68
2023/06/28 03:25:59;;;;;;;9.97;2.50;;;;;;;15.01;99.55;100986.00;5016049;28;20448;-67
2023/06/28 03:28:26;;;;;;;5.10;1.67;;;;;;;15.02;99.56;100989.53;5015645;28;20522;-67
2023/06/28 03:30:52;;;;;;;12.13;2.20;;;;;;;14.94;100.00;100995.78;5015885;28;20472;-67
2023/06/28 03:33:19;;;;;;;6.50;1.80;;;;;;;14.96;100.00;100986.16;5015868;28;20918;-68
2023/06/28 03:35:46;;;;;;;6.10;2.13;;;;;;;14.89;100.00;100989.38;5016120;28;20475;-68
2023/06/28 03:38:12;;;;;;;7.07;2.37;;;;;;;15.00;100.00;100989.03;5016042;28;20495;-67
2023/06/28 03:40:40;;;;;;;15.73;1.80;;;;;;;14.99;100.00;100990.16;5016005;28;20935;-68
2023/06/28 03:43:07;;;;;;;11.27;1.90;;;;;;;15.02;100.00;100986.81;5015794;28;20444;-69
2023/06/28 03:45:34;;;;;;;6.07;2.00;;;;;;;15.06;99.63;100996.75;5015810;28;20449;-69
2023/06/28 03:48:01;;;;;;;5.87;2.00;;;;;;;15.07;99.52;100992.09;5015525;28;20519;-68
2023/06/28 03:50:27;;;;;;;7.00;1.90;;;;;;;15.09;100.00;100995.31;5015642;28;20507;-68
2023/06/28 03:52:54;;;;;;;6.60;2.20;;;;;;;15.13;100.00;100999.78;5015714;28;20452;-68
2023/06/28 03:55:21;;;;;;;5.33;1.60;;;;;;;15.17;100.00;100999.16;5015588;28;20959;-67
2023/06/28 03:57:49;;;;;;;6.30;1.87;;;;;;;15.24;99.09;101010.41;5015609;28;20492;-68
2023/06/28 04:00:16;;;;;;;5.40;1.43;;;;;;;15.24;99.13;101004.94;5015356;28;20866;-68
2023/06/28 04:02:43;;;;;;;5.63;1.70;;;;;;;15.10;99.76;101000.47;5015553;28;20448;-68
2023/06/28 04:05:10;;;;;;;5.80;1.50;;;;;;;15.14;100.00;101004.16;5015464;28;20494;-70
2023/06/28 04:07:37;;;;;;;13.53;2.30;;;;;;;15.15;99.12;101002.22;5015321;28;20488;-68
2023/06/28 04:10:04;;;;;;;6.00;1.77;;;;;;;15.15;99.46;101002.22;5015434;28;20464;-68
2023/06/28 04:12:31;;;;;;;5.33;1.70;;;;;;;15.17;99.71;101005.41;5015226;28;20452;-67
2023/06/28 04:15:01;;;;;;;5.63;1.80;;;;;;;15.20;98.76;101002.06;5015098;28;20436;-67
2023/06/28 04:17:27;;;;;;;7.63;1.93;;;;;;;15.15;99.17;100999.50;5014268;28;20464;-69
2023/06/28 04:19:54;;;;;;;7.83;2.37;;;;;;;15.23;98.86;100998.69;5015194;28;20539;-68
2023/06/28 04:22:20;;;;;;;11.63;2.40;;;;;;;15.24;98.39;101007.69;5014875;28;20822;-68
2023/06/28 04:24:47;;;;;;;6.90;2.30;;;;;;;15.17;97.84;100999.16;5015246;28;20882;-68
2023/06/28 04:27:14;;;;;;;8.80;1.80;;;;;;;15.24;98.18;101003.03;5014825;28;21078;-68
2023/06/28 04:29:40;;;;;;;9.10;2.10;;;;;;;15.28;97.69;101006.72;5015087;28;20519;-68
2023/06/28 04:32:23;;;;;;;5.50;1.63;;;;;;;15.38;97.10;101006.38;5014966;28;20450;-67
2023/06/28 04:34:52;;;;;;;7.30;1.80;;;;;;;15.42;97.47;101014.72;5014672;28;20938;-68
2023/06/28 04:37:18;;;;;;;6.87;1.60;;;;;;;15.27;98.41;101016.03;5014834;28;20472;-67
2023/06/28 04:39:45;;;;;;;5.80;2.03;;;;;;;15.37;97.67;101015.69;5014918;28;20475;-68
2023/06/28 04:42:14;;;;;;;6.13;2.00;;;;;;;15.43;97.58;101031.91;5015111;28;20450;-69
2023/06/28 04:44:41;;;;;;;5.83;1.90;;;;;;;15.41;97.31;101032.25;5014965;28;20848;-68
2023/06/28 04:47:09;;;;;;;6.47;2.17;;;;;;;15.48;97.79;101037.19;5014551;28;20533;-68
2023/06/28 04:49:36;;;;;;;12.63;2.50;;;;;;;15.58;97.46;101036.84;5014388;28;20502;-69
2023/06/28 04:52:03;;;;;;;7.53;2.23;;;;;;;15.59;97.27;101033.00;5014723;28;20443;-68
2023/06/28 04:54:29;;;;;;;8.10;1.83;;;;;;;15.61;96.83;101037.00;5014329;28;21006;-69
2023/06/28 04:56:56;;;;;;;7.83;2.07;;;;;;;15.64;97.28;101041.88;5014440;28;20440;-68
2023/06/28 04:59:22;;;;;;;7.17;1.80;;;;;;;15.59;98.05;101038.47;5014130;28;20543;-69
2023/06/28 05:01:50;;;;;;;8.10;1.77;;;;;;;15.60;96.76;101034.63;5014085;28;20502;-71
2023/06/28 05:04:18;;;;;;;7.70;1.90;;;;;;;15.62;96.42;101033.16;5014569;28;20475;-73
2023/06/28 05:06:45;;;;;;;6.60;1.90;;;;;;;15.57;97.09;101029.78;5014281;28;20527;-71
2023/06/28 05:09:11;;;;;;;7.90;1.47;;;;;;;15.44;98.78;101037.03;5013963;28;20495;-69
2023/06/28 05:11:38;;;;;;;5.80;1.53;;;;;;;15.47;97.88;101041.06;5014262;28;20444;-68
2023/06/28 05:14:05;;;;;;;8.27;1.80;;;;;;;15.43;98.24;101035.44;5014493;28;20527;-68
2023/06/28 05:16:31;;;;;;;5.63;1.57;;;;;;;15.47;97.57;101032.88;5014282;28;21021;-69
2023/06/28 05:18:58;;;;;;;8.03;1.70;;;;;;;15.33;98.95;101027.59;5014218;28;20567;-69
2023/06/28 05:21:26;;;;;;;6.13;1.60;;;;;;;15.49;96.90;101028.66;5014027;28;20440;-68
2023/06/28 05:23:52;;;;;;;6.57;1.40;;;;;;;15.46;97.72;101039.47;5014149;28;20486;-67
2023/06/28 05:26:19;;;;;;;6.20;1.63;;;;;;;15.50;98.27;101032.22;5013685;28;20499;-69
2023/06/28 05:28:45;;;;;;;5.47;1.60;;;;;;;15.61;98.87;101039.75;5013583;28;20582;-68
2023/06/28 05:31:12;;;;;;;6.90;1.40;;;;;;;15.68;97.34;101042.03;5013886;28;20891;-68
2023/06/28 05:33:40;;;;;;;14.87;1.67;;;;;;;15.80;96.50;101044.88;5013564;28;20892;-68
2023/06/28 05:36:07;;;;;;;5.90;1.37;;;;;;;15.90;96.04;101038.28;5013861;28;20538;-69
2023/06/28 05:38:35;;;;;;;6.70;1.90;;;;;;;15.98;95.89;101044.81;5013642;28;20551;-69
2023/06/28 05:41:12;;;;;;;7.90;1.53;;;;;;;16.08;95.83;101042.56;5013804;28;20575;-69
2023/06/28 05:43:39;;;;;;;5.73;1.90;;;;;;;16.19;96.30;101036.72;5013785;28;20432;-68
2023/06/28 05:46:05;;;;;;;7.90;2.10;;;;;;;16.28;95.78;101048.44;5013474;28;20982;-69
2023/06/28 05:48:32;;;;;;;5.97;1.80;;;;;;;16.45;94.11;101037.41;5013183;28;20487;-68
2023/06/28 05:50:59;;;;;;;8.33;1.63;;;;;;;16.49;94.46;101038.38;5013362;28;20939;-68
2023/06/28 05:53:26;;;;;;;11.00;2.13;;;;;;;16.61;94.56;101046.66;5013594;28;20447;-68
2023/06/28 05:55:54;;;;;;;8.37;2.00;;;;;;;16.67;92.66;101032.78;5013273;28;20454;-68
2023/06/28 05:58:20;;;;;;;9.87;2.10;;;;;;;16.76;91.67;101036.31;5013437;28;20807;-69
2023/06/28 06:00:47;;;;;;;8.03;1.90;;;;;;;16.77;92.91;101038.69;5013513;28;20530;-68
2023/06/28 06:03:14;;;;;;;7.23;1.80;;;;;;;16.82;91.92;101041.28;5013461;28;20534;-75
2023/06/28 06:05:41;;;;;;;5.07;1.20;;;;;;;16.86;90.45;101039.44;5013428;28;20470;-68
2023/06/28 06:08:07;;;;;;;6.30;2.10;;;;;;;16.88;89.60;101039.13;5013315;28;20498;-71
2023/06/28 06:10:34;;;;;;;5.30;1.13;;;;;;;16.86;89.75;101053.13;5013393;28;20877;-67
2023/06/28 06:13:02;;;;;;;5.27;1.60;;;;;;;16.86;88.40;101036.72;5013415;28;20480;-68
2023/06/28 06:15:28;;;;;;;5.40;1.50;;;;;;;16.89;89.76;101044.25;5013307;28;20452;-67
2023/06/28 06:17:55;;;;;;;6.80;1.93;;;;;;;17.01;88.43;101053.69;5012940;28;20460;-67
2023/06/28 06:20:22;;;;;;;7.50;1.70;;;;;;;16.98;88.49;101043.41;5013325;28;20532;-67
2023/06/28 06:22:48;;;;;;;6.97;1.50;;;;;;;17.06;87.59;101046.09;5013330;28;20530;-67
2023/06/28 06:25:15;;;;;;;7.73;1.73;;;;;;;16.99;87.76;101042.28;5012954;28;20947;-67
2023/06/28 06:27:45;;;;;;;11.50;1.70;;;;;;;17.10;88.63;101059.91;5013955;28;20503;-65
2023/06/28 06:30:13;;;;;;;6.30;1.40;;;;;;;17.17;85.51;101037.47;5013215;28;20436;-65
2023/06/28 06:32:40;;;;;;;5.30;1.33;;;;;;;17.24;85.69;101044.00;5013001;28;20502;-65
2023/06/28 06:35:07;;;;;;;7.10;1.70;;;;;;;17.32;85.76;101034.94;5013716;28;20448;-66
2023/06/28 06:37:34;;;;;;;6.27;1.40;;;;;;;17.23;84.94;101049.84;5013451;28;20478;-65
2023/06/28 06:40:01;;;;;;;5.93;1.77;;;;;;;17.31;86.46;101051.69;5014539;28;20555;-65
2023/06/28 06:42:27;;;;;;;7.57;1.93;;;;;;;17.49;84.51;101055.09;5016685;28;20527;-65
2023/06/28 06:44:54;;;;;;;8.60;1.77;;;;;;;17.49;82.24;101060.56;5016665;28;20451;-64
2023/06/28 06:47:22;;;;;;;4.60;1.10;;;;;;;17.51;83.27;101063.75;5016773;28;20529;-66
2023/06/28 06:49:48;;;;;;;5.90;1.60;;;;;;;17.44;83.31;101064.28;5016883;28;20882;-65
2023/06/28 06:52:15;;;;;;;5.63;1.23;;;;;;;17.46;84.30;101074.94;5016549;28;20448;-67
2023/06/28 06:54:41;;;;;;;4.80;1.20;;;;;;;17.41;83.78;101062.25;5016855;28;20534;-67
2023/06/28 06:57:08;;;;;;;12.10;1.53;;;;;;;17.47;83.74;101068.31;5016702;28;20547;-66
2023/06/28 06:59:35;;;;;;;6.17;1.40;;;;;;;17.54;83.41;101060.38;5016415;28;20823;-67
2023/06/28 07:02:01;;;;;;;5.13;1.40;;;;;;;17.55;82.07;101073.72;5016685;28;20450;-66
2023/06/28 07:04:29;;;;;;;5.30;1.43;;;;;;;17.60;82.43;101076.25;5016725;28;20531;-66
2023/06/28 07:06:56;;;;;;;9.27;1.77;;;;;;;17.72;80.91;101074.69;5016175;28;20847;-67
2023/06/28 07:09:24;;;;;;;12.87;1.73;;;;;;;17.87;82.32;101079.56;5016318;28;20565;-67
2023/06/28 07:11:50;;;;;;;9.03;2.30;;;;;;;18.02;80.33;101098.13;5016755;28;20452;-66
2023/06/28 07:14:17;;;;;;;6.60;1.43;;;;;;;18.10;78.01;101088.97;5016542;28;20515;-66
2023/06/28 07:16:45;;;;;;;7.03;1.90;;;;;;;18.18;77.98;101086.50;5016373;28;20448;-66
2023/06/28 07:19:11;;;;;;;5.53;1.20;;;;;;;18.21;78.87;101094.03;5016232;28;20460;-66
2023/06/28 07:21:39;;;;;;;8.77;1.47;;;;;;;17.97;77.10;101094.78;5016046;28;20450;-66
2023/06/28 07:24:07;;;;;;;6.47;1.43;;;;;;;17.96;77.83;101087.69;5016343;28;20444;-66
2023/06/28 07:26:34;;;;;;;6.10;1.60;;;;;;;18.11;79.45;101093.34;5016443;28;20454;-66
2023/06/28 07:29:00;;;;;;;5.70;1.40;;;;;;;18.12;76.43;101094.13;5015736;28;20492;-66
2023/06/28 07:31:27;;;;;;;6.40;1.53;;;;;;;18.19;75.31;101091.63;5015943;28;20448;-66
2023/06/28 07:33:53;;;;;;;4.83;1.00;;;;;;;18.29;74.01;101091.19;5015853;28;20947;-66
2023/06/28 07:36:20;;;;;;;4.83;1.27;;;;;;;18.29;73.43;101080.22;5016109;28;20448;-66
2023/06/28 07:38:49;;;;;;;4.90;0.93;;;;;;;18.24;71.99;101087.84;5016475;28;20504;-67
2023/06/28 07:41:16;;;;;;;4.47;0.93;;;;;;;18.34;71.42;101081.94;5015838;28;20491;-66
2023/06/28 07:43:42;;;;;;;6.50;1.43;;;;;;;18.47;71.02;101091.00;5015968;28;20444;-66
2023/06/28 07:46:09;;;;;;;4.73;0.90;;;;;;;18.48;69.14;101087.09;5015891;28;20531;-66
2023/06/28 07:48:36;;;;;;;4.60;0.90;;;;;;;18.59;70.56;101080.00;5015805;28;20926;-66
2023/06/28 07:51:05;;;;;;;6.20;1.30;;;;;;;18.80;71.26;101082.66;5014403;28;20472;-66
2023/06/28 07:53:32;;;;;;;4.80;1.30;;;;;;;18.95;70.95;101081.16;5015722;28;20502;-65
2023/06/28 07:56:00;;;;;;;6.30;1.60;;;;;;;19.04;70.62;101079.91;5015417;28;20931;-66
2023/06/28 07:58:26;;;;;;;5.87;1.20;;;;;;;18.90;70.66;101091.25;5015360;28;21022;-65
2023/06/28 08:00:53;;;;;;;5.20;1.30;;;;;;;18.70;70.36;101083.13;5015405;28;20444;-66
2023/06/28 08:03:20;;;;;;;5.30;1.13;;;;;;;18.72;69.91;101080.84;5015629;28;20820;-67
2023/06/28 08:05:47;;;;;;;5.20;1.30;;;;;;;18.66;69.97;101083.00;5015795;28;20452;-68
2023/06/28 08:08:13;;;;;;;4.90;0.90;;;;;;;18.84;71.60;101086.31;5015379;28;20575;-66
2023/06/28 08:10:40;;;;;;;4.97;1.37;;;;;;;19.08;72.92;101090.97;5015523;28;20794;-65
2023/06/28 08:13:08;;;;;;;5.30;1.40;;;;;;;19.10;68.28;101088.69;5015430;28;20487;-66
2023/06/28 08:15:36;;;;;;;4.80;1.20;;;;;;;19.13;69.00;101086.06;5015048;28;20440;-68
2023/06/28 08:18:05;;;;;;;4.90;1.10;;;;;;;19.41;68.35;101091.56;5015274;28;20468;-66
2023/06/28 08:20:33;;;;;;;6.77;1.43;;;;;;;19.54;67.95;101094.28;5015169;28;20444;-66
2023/06/28 08:23:00;;;;;;;6.27;1.33;;;;;;;19.69;69.08;101101.00;5015313;28;20448;-66
2023/06/28 08:25:26;;;;;;;4.80;1.27;;;;;;;19.62;67.59;101098.88;5015131;28;20950;-66
2023/06/28 08:27:53;;;;;;;6.03;1.40;;;;;;;19.75;65.47;101103.16;5014946;28;20578;-66
2023/06/28 08:30:21;;;;;;;8.83;1.20;;;;;;;19.84;65.39;101111.28;5015098;28;20444;-66
2023/06/28 08:32:47;;;;;;;10.03;1.43;;;;;;;19.80;63.56;101107.63;5014786;28;20526;-66
2023/06/28 08:35:14;;;;;;;9.90;1.63;;;;;;;19.80;64.36;101108.41;5014965;28;20535;-66
2023/06/28 08:37:40;;;;;;;4.60;1.20;;;;;;;19.92;65.58;101099.28;5015011;28;20570;-66
2023/06/28 08:40:08;;;;;;;4.87;1.10;;;;;;;19.97;62.70;101110.06;5014963;28;20440;-67
2023/06/28 08:42:35;;;;;;;5.33;1.20;;;;;;;19.94;63.89;101099.75;5015009;28;20452;-66
2023/06/28 08:45:03;;;;;;;5.20;1.10;;;;;;;20.10;62.91;101094.28;5014605;28;20471;-66
2023/06/28 08:47:33;;;;;;;4.83;0.97;;;;;;;20.23;62.86;101093.06;5014514;28;20471;-66
2023/06/28 08:49:59;;;;;;;5.37;1.00;;;;;;;20.12;62.57;101097.47;5014840;28;20454;-66
2023/06/28 08:52:27;;;;;;;6.10;1.67;;;;;;;20.10;62.73;101091.53;5014765;28;20447;-67
2023/06/28 08:54:54;;;;;;;5.87;0.93;;;;;;;20.26;62.68;101103.34;5014684;28;20455;-66
2023/06/28 08:57:22;;;;;;;4.60;1.00;;;;;;;20.46;61.87;101103.44;5014585;28;20468;-66
2023/06/28 08:59:49;;;;;;;5.33;1.43;;;;;;;20.52;60.90;101100.09;5014721;28;20468;-66
2023/06/28 09:02:18;;;;;;;5.70;1.30;;;;;;;20.57;60.45;101097.06;5013744;28;20963;-66
2023/06/28 09:04:48;;;;;;;9.17;1.73;;;;;;;20.57;60.10;101097.06;5014464;28;20484;-66
2023/06/28 09:07:16;;;;;;;4.43;0.90;;;;;;;20.46;61.16;101098.75;5014231;28;20503;-66
2023/06/28 09:09:47;;;;;;;4.80;1.00;;;;;;;20.46;59.38;101096.00;5014265;28;20490;-65
2023/06/28 09:12:14;;;;;;;5.57;1.00;;;;;;;20.31;60.21;101094.81;5014268;28;20424;-66
2023/06/28 09:14:41;;;;;;;4.33;0.90;;;;;;;20.43;62.23;101091.19;5014430;28;20490;-66
2023/06/28 09:17:07;;;;;;;6.00;1.37;;;;;;;20.56;58.97;101094.69;5014261;28;20974;-67
2023/06/28 09:19:34;;;;;;;4.67;1.20;;;;;;;20.57;59.51;101093.50;5014335;28;20531;-66
2023/06/28 09:22:08;;;;;;;5.60;1.60;;;;;;;20.65;59.19;101092.53;5014336;28;20542;-67
2023/06/28 09:24:35;;;;;;;4.40;1.00;;;;;;;20.57;56.63;101088.00;5014568;28;20439;-67
2023/06/28 09:27:03;;;;;;;6.93;1.10;;;;;;;20.61;58.39;101086.16;5013826;28;20483;-67
2023/06/28 09:29:30;;;;;;;4.70;1.00;;;;;;;20.65;63.74;101089.78;5014074;28;20555;-66
2023/06/28 09:31:57;;;;;;;5.80;1.30;;;;;;;20.88;60.13;101090.72;5014193;28;20483;-67
2023/06/28 09:34:23;;;;;;;5.23;1.20;;;;;;;20.88;59.87;101101.72;5014069;28;20498;-67
2023/06/28 09:36:52;;;;;;;4.67;1.00;;;;;;;20.89;57.50;101103.34;5013981;28;20472;-66
2023/06/28 09:39:20;;;;;;;4.60;0.97;;;;;;;20.76;56.61;101104.63;5013660;28;20447;-66
2023/06/28 09:41:49;;;;;;;6.90;1.40;;;;;;;20.64;59.71;101096.44;5013935;28;20447;-66
2023/06/28 09:44:26;;;;;;;5.87;0.87;;;;;;;20.67;57.70;101103.97;5013842;28;20448;-66
2023/06/28 09:47:00;;;;;;;4.70;0.83;;;;;;;20.78;57.21;101104.25;5013914;28;20431;-67
2023/06/28 09:49:27;;;;;;;5.00;1.20;;;;;;;20.95;56.87;101108.56;5013571;28;20558;-66
2023/06/28 09:52:02;;;;;;;4.50;1.03;;;;;;;21.22;58.77;101110.38;5013871;28;20523;-66
2023/06/28 09:54:35;;;;;;;6.93;1.03;;;;;;;21.31;56.43;101102.72;5013478;28;20919;-66
2023/06/28 09:57:02;;;;;;;5.03;1.10;;;;;;;21.35;57.25;101105.56;5014058;28;20522;-65
2023/06/28 09:59:34;;;;;;;4.70;1.00;;;;;;;21.27;57.56;101112.84;5013689;28;20448;-67
2023/06/28 10:02:05;;;;;;;4.43;0.80;;;;;;;21.30;57.54;101111.31;5013463;28;20519;-66
2023/06/28 10:04:34;;;;;;;7.03;0.90;;;;;;;21.42;55.25;101108.44;5013653;28;20481;-66
2023/06/28 10:07:02;;;;;;;4.10;0.77;;;;;;;21.52;56.87;101118.91;5013932;28;20444;-66
2023/06/28 10:09:33;;;;;;;5.77;1.30;;;;;;;21.49;55.67;101119.63;5013485;28;20487;-67
2023/06/28 10:12:03;;;;;;;5.23;1.23;;;;;;;21.30;55.68;101106.59;5013780;28;20456;-67
2023/06/28 10:14:32;;;;;;;5.90;1.13;;;;;;;21.47;57.30;101116.44;5012701;28;20455;-66
2023/06/28 10:17:00;;;;;;;12.93;1.50;;;;;;;21.76;55.28;101115.03;5013532;28;20448;-67
2023/06/28 10:19:27;;;;;;;4.13;0.83;;;;;;;22.03;53.49;101109.63;5013520;28;20479;-67
2023/06/28 10:21:56;;;;;;;5.47;1.00;;;;;;;22.10;55.39;101118.06;5013181;28;20530;-66
2023/06/28 10:24:22;;;;;;;4.50;0.90;;;;;;;22.36;56.25;101112.66;5013620;28;20432;-66
2023/06/28 10:26:50;;;;;;;5.73;1.50;;;;;;;22.50;52.28;101114.84;5013579;28;20502;-67
2023/06/28 10:29:20;;;;;;;6.00;1.00;;;;;;;22.41;52.73;101101.28;5012859;28;21021;-67
2023/06/28 10:31:48;;;;;;;7.53;1.13;;;;;;;22.26;56.37;101118.75;5013480;28;20486;-66
2023/06/28 10:34:16;;;;;;;5.00;1.20;;;;;;;22.23;53.46;101110.44;5013729;28;20551;-69
2023/06/28 10:36:42;;;;;;;5.03;1.10;;;;;;;22.41;53.31;101112.34;5014652;28;20539;-71
2023/06/28 10:39:10;;;;;;;4.20;0.73;;;;;;;22.49;54.24;101127.06;5012913;28;20678;-70
2023/06/28 10:41:37;;;;;;;4.90;1.30;;;;;;;22.29;53.45;101120.78;5013219;28;20471;-70
2023/06/28 10:44:05;;;;;;;6.63;1.20;;;;;;;22.12;53.47;101118.50;5012983;28;20432;-71
2023/06/28 10:46:35;;;;;;;4.77;0.90;;;;;;;22.10;52.88;101116.09;5013158;28;20472;-70
2023/06/28 10:49:03;;;;;;;7.57;1.57;;;;;;;22.08;55.49;101109.34;5013003;28;20488;-70
2023/06/28 10:51:33;;;;;;;4.87;1.00;;;;;;;22.30;54.34;101121.59;5012785;28;20951;-70
2023/06/28 10:54:13;;;;;;;4.33;1.17;;;;;;;22.61;52.15;101109.47;5013578;28;20495;-70
2023/06/28 10:56:44;;;;;;;4.20;0.90;;;;;;;22.91;51.83;101104.06;5012798;28;20882;-69
2023/06/28 10:59:11;;;;;;;4.17;0.90;;;;;;;22.99;54.43;101104.97;5012923;28;20486;-70
2023/06/28 11:01:52;;;;;;;4.60;0.93;;;;;;;22.95;51.85;101118.72;5013062;28;20476;-70
2023/06/28 11:04:22;;;;;;;6.70;1.20;;;;;;;22.81;50.73;101121.25;5013170;28;20478;-71
2023/06/28 11:06:49;;;;;;;4.87;1.10;;;;;;;22.75;50.93;101120.75;5013066;28;20482;-70
2023/06/28 11:09:17;;;;;;;4.63;1.17;;;;;;;22.63;51.06;101112.69;5012910;28;20491;-70
2023/06/28 11:11:54;;;;;;;6.40;1.30;;;;;;;22.47;50.97;101125.81;5017860;28;20450;-70
2023/06/28 11:14:23;;;;;;;4.53;0.83;;;;;;;22.55;52.10;101119.25;5025395;28;20433;-71
2023/06/28 11:16:53;;;;;;;4.40;0.93;;;;;;;22.67;51.99;101117.09;5013150;28;20480;-72
2023/06/28 11:19:22;;;;;;;4.57;0.93;;;;;;;22.57;51.60;101122.44;5012743;28;20506;-69
2023/06/28 11:21:55;;;;;;;4.53;0.90;;;;;;;22.72;52.06;101124.28;5012924;28;20467;-70
2023/06/28 11:24:26;;;;;;;4.40;0.90;;;;;;;22.70;51.48;101129.34;5012976;28;20854;-71
2023/06/28 11:26:53;;;;;;;4.67;1.03;;;;;;;22.67;51.39;101127.34;5015305;28;20446;-71